Аэропорт: Гродно. Гродно

ICAO: UMMG

METAR:
2019/05/26 14:00
UMMG 261400Z 24006G09MPS 9999 BKN040 BKN066 16/06 Q1009 NOSIG
METAR:
2018/08/30 12:24
TAF UMMG 301100Z 3012/30218 18005MPS 9999 BKN020